Time;durP1;ratioP1;P1;durP2;ratioP2;P2;SDS_P1;SDS_P2;PMS_P1;PMS_P2;Temp;Humidity;BMP_temperature;BMP_pressure;BME280_temperature;BME280_humidity;BME280_pressure;Samples;Min_cycle;Max_cycle;Signal;HPM_P1;HPM_P2
2020/12/08 00:00:38;;;;;;;42.98;27.17;;;;;;;2.24;80.13;96004.22;1729004;82;21150;-83
2020/12/08 00:03:05;;;;;;;43.98;25.00;;;;;;;2.20;80.21;96002.34;1728966;83;21150;-83
2020/12/08 00:05:32;;;;;;;42.78;26.00;;;;;;;2.18;80.31;96001.27;1728841;83;21146;-83
2020/12/08 00:07:59;;;;;;;37.93;24.72;;;;;;;2.12;80.21;96003.55;1728662;83;21293;-83
2020/12/08 00:10:26;;;;;;;42.53;25.45;;;;;;;2.11;80.32;96009.78;1728786;82;21142;-83
2020/12/08 00:12:54;;;;;;;41.13;26.27;;;;;;;2.04;80.37;96003.94;1728634;83;21143;-83
2020/12/08 00:15:22;;;;;;;40.35;25.77;;;;;;;2.05;80.50;96006.83;1728785;83;21543;-83
2020/12/08 00:17:49;;;;;;;43.38;26.68;;;;;;;2.16;80.65;96005.16;1728896;83;21138;-83
2020/12/08 00:20:18;;;;;;;40.25;25.00;;;;;;;2.22;80.51;96004.98;1729002;82;21135;-83
2020/12/08 00:22:45;;;;;;;39.58;23.95;;;;;;;2.30;80.47;96006.41;1728701;83;21301;-83
2020/12/08 00:25:14;;;;;;;35.63;22.98;;;;;;;2.39;80.52;96003.64;1733074;83;21159;-82
2020/12/08 00:27:41;;;;;;;34.23;22.20;;;;;;;2.51;80.45;96003.02;1734077;83;21159;-83
2020/12/08 00:30:15;;;;;;;36.93;22.15;;;;;;;2.63;80.36;95997.69;1734248;81;21509;-83
2020/12/08 00:32:44;;;;;;;37.35;22.37;;;;;;;2.71;80.14;95998.59;1734151;82;21115;-83
2020/12/08 00:35:13;;;;;;;39.80;24.85;;;;;;;2.60;79.81;96003.41;1734305;82;21143;-83
2020/12/08 00:37:45;;;;;;;41.70;26.48;;;;;;;2.41;79.84;96003.42;1734418;82;21269;-83
2020/12/08 00:40:13;;;;;;;41.90;25.48;;;;;;;2.26;79.92;96013.95;1734492;81;21281;-83
2020/12/08 00:42:40;;;;;;;42.95;25.77;;;;;;;2.30;80.10;96017.66;1734393;83;21297;-82
2020/12/08 00:45:13;;;;;;;39.27;23.98;;;;;;;2.38;80.24;96012.52;1734588;82;21138;-83
2020/12/08 00:47:40;;;;;;;36.63;24.15;;;;;;;2.35;80.20;96011.70;1734242;83;21126;-83
2020/12/08 00:50:07;;;;;;;37.93;23.25;;;;;;;2.16;80.12;96015.11;1734395;81;21179;-83
2020/12/08 00:52:35;;;;;;;40.00;24.15;;;;;;;2.21;80.45;96016.99;1734328;83;21126;-83
2020/12/08 00:55:02;;;;;;;40.00;24.27;;;;;;;2.25;80.45;96023.31;1734273;82;21138;-83
2020/12/08 00:57:29;;;;;;;40.67;25.72;;;;;;;2.11;80.55;96014.22;1734309;82;21665;-83
2020/12/08 00:59:56;;;;;;;43.25;25.85;;;;;;;2.01;80.59;96021.41;1734275;81;21152;-83
2020/12/08 01:02:23;;;;;;;39.92;26.02;;;;;;;2.08;80.73;96010.27;1734525;83;21158;-83
2020/12/08 01:04:50;;;;;;;44.80;26.12;;;;;;;2.06;80.62;96024.09;1734265;82;21284;-83
2020/12/08 01:07:17;;;;;;;43.58;25.57;;;;;;;2.03;80.65;96014.91;1734574;82;21292;-83
2020/12/08 01:09:45;;;;;;;40.80;25.48;;;;;;;2.00;80.81;96016.70;1734212;81;21151;-83
2020/12/08 01:12:11;;;;;;;40.12;26.20;;;;;;;1.91;81.01;96017.33;1734362;83;21285;-83
2020/12/08 01:14:38;;;;;;;40.55;24.85;;;;;;;1.91;81.10;96018.63;1734251;82;21142;-83
2020/12/08 01:17:06;;;;;;;44.88;25.55;;;;;;;1.90;81.29;96021.77;1734317;83;21147;-83
2020/12/08 01:19:33;;;;;;;37.65;23.90;;;;;;;1.79;81.36;96023.41;1734301;81;21296;-83
2020/12/08 01:22:00;;;;;;;42.43;25.48;;;;;;;1.75;81.58;96019.70;1734490;83;21131;-83
2020/12/08 01:24:27;;;;;;;40.20;26.15;;;;;;;1.67;81.80;96016.16;1734143;83;21549;-83
2020/12/08 01:26:58;;;;;;;44.58;26.45;;;;;;;1.63;81.91;96015.56;1734268;82;21142;-82
2020/12/08 01:29:24;;;;;;;;;;;;;;;1.62;82.00;96018.69;1736825;81;21273;-83
2020/12/08 01:31:51;;;;;;;40.95;23.92;;;;;;;1.63;82.06;96021.58;1734383;83;20440;-82
2020/12/08 01:34:18;;;;;;;40.70;24.32;;;;;;;1.65;82.05;96015.60;1734231;83;21268;-83
2020/12/08 01:36:45;;;;;;;40.63;25.52;;;;;;;1.69;81.99;96018.53;1734240;82;21162;-83
2020/12/08 01:39:12;;;;;;;41.92;26.45;;;;;;;1.73;82.06;96017.05;1734310;82;21383;-83
2020/12/08 01:41:39;;;;;;;46.30;27.15;;;;;;;1.87;82.17;96022.76;1734489;81;21281;-83
2020/12/08 01:44:06;;;;;;;39.53;26.33;;;;;;;1.98;82.10;96014.84;1734318;83;21280;-82
2020/12/08 01:46:36;;;;;;;40.78;26.87;;;;;;;2.03;81.83;96014.13;1734471;82;21122;-83
2020/12/08 01:49:03;;;;;;;41.53;25.57;;;;;;;2.10;81.78;96016.04;1734553;83;21265;-83
2020/12/08 01:51:30;;;;;;;38.73;24.60;;;;;;;2.16;81.62;96017.72;1734338;81;21284;-83
2020/12/08 01:53:59;;;;;;;41.00;23.45;;;;;;;2.23;81.52;96017.02;1734180;83;21280;-83
2020/12/08 01:56:26;;;;;;;38.55;22.60;;;;;;;2.27;81.27;96018.66;1734210;82;21143;-82
2020/12/08 01:58:53;;;;;;;41.55;25.40;;;;;;;2.20;81.08;96020.13;1734305;83;21507;-83
2020/12/08 02:01:19;;;;;;;44.23;25.85;;;;;;;2.08;80.97;96024.64;1734329;81;21154;-82
2020/12/08 02:03:49;;;;;;;43.95;26.37;;;;;;;1.99;81.02;96024.78;1734297;83;21182;-83
2020/12/08 02:06:16;;;;;;;42.57;26.63;;;;;;;1.96;81.10;96026.55;1734629;83;21273;-83
2020/12/08 02:08:43;;;;;;;46.10;27.27;;;;;;;1.89;81.17;96029.84;1734215;82;21518;-82
2020/12/08 02:11:10;;;;;;;41.18;24.85;;;;;;;1.90;81.30;96027.50;1734314;81;21625;-83
2020/12/08 02:13:37;;;;;;;40.03;25.77;;;;;;;1.97;81.35;96028.13;1734204;82;21155;-83
2020/12/08 02:16:04;;;;;;;41.23;26.25;;;;;;;1.94;81.30;96027.30;1734343;82;21115;-83
2020/12/08 02:18:31;;;;;;;40.50;24.63;;;;;;;1.97;81.40;96027.64;1734211;83;21252;-83
2020/12/08 02:21:04;;;;;;;45.98;27.82;;;;;;;1.99;81.37;96023.48;1734269;81;21292;-83
2020/12/08 02:23:31;;;;;;;42.93;27.50;;;;;;;1.90;81.35;96020.45;1734223;82;21095;-83
2020/12/08 02:26:06;;;;;;;47.30;27.52;;;;;;;1.90;81.44;96019.66;1734160;83;21155;-83
2020/12/08 02:28:35;;;;;;;46.42;25.50;;;;;;;1.90;81.44;96017.05;1734291;83;21143;-82
2020/12/08 02:31:02;;;;;;;44.70;25.57;;;;;;;1.91;81.43;96019.42;1734221;81;21138;-82
2020/12/08 02:33:30;;;;;;;41.75;25.20;;;;;;;1.90;81.41;96024.38;1734531;82;21293;-83
2020/12/08 02:35:57;;;;;;;49.13;28.15;;;;;;;1.83;81.42;96021.63;1734180;83;21554;-83
2020/12/08 02:38:27;;;;;;;54.45;31.37;;;;;;;1.75;81.54;96010.55;1734268;83;21143;-82
2020/12/08 02:40:55;;;;;;;49.30;29.63;;;;;;;1.79;81.69;96013.48;1734212;81;21613;-82
2020/12/08 02:43:23;;;;;;;46.30;27.20;;;;;;;1.82;81.78;96018.73;1734279;82;21143;-83
2020/12/08 02:45:51;;;;;;;49.30;29.98;;;;;;;1.69;81.85;96015.42;1734179;83;21131;-83
2020/12/08 02:48:19;;;;;;;49.03;28.00;;;;;;;1.60;81.96;96023.88;1734198;82;21163;-83
2020/12/08 02:50:46;;;;;;;50.67;28.47;;;;;;;1.62;82.13;96020.00;1734174;81;21155;-83
2020/12/08 02:53:12;;;;;;;51.13;28.67;;;;;;;1.73;82.29;96019.14;1734273;83;21501;-83
2020/12/08 02:55:39;;;;;;;43.87;27.02;;;;;;;1.90;82.39;96014.44;1734166;83;21501;-83
2020/12/08 02:58:06;;;;;;;43.40;25.70;;;;;;;2.01;82.26;96016.98;1734154;82;21166;-82
2020/12/08 03:00:33;;;;;;;48.08;28.40;;;;;;;2.00;82.13;96023.23;1756659;81;21139;-83
2020/12/08 03:03:00;;;;;;;56.65;30.92;;;;;;;1.92;82.05;96022.83;1764768;81;21127;-83
2020/12/08 03:05:27;;;;;;;50.00;28.42;;;;;;;1.83;81.99;96025.55;1764493;81;21134;-83
2020/12/08 03:07:54;;;;;;;50.85;28.35;;;;;;;1.77;82.10;96020.25;1764401;81;21151;-83
2020/12/08 03:10:21;;;;;;;55.40;28.45;;;;;;;1.83;82.16;96024.24;1764567;81;21277;-83
2020/12/08 03:12:48;;;;;;;47.83;27.05;;;;;;;1.84;82.13;96023.23;1746263;81;21139;-82
2020/12/08 03:15:16;;;;;;;50.58;29.82;;;;;;;1.84;82.15;96021.93;1734164;83;21138;-82
2020/12/08 03:17:42;;;;;;;52.62;31.62;;;;;;;1.91;82.28;96019.42;1734241;83;21166;-83
2020/12/08 03:20:09;;;;;;;45.43;28.87;;;;;;;2.02;82.25;96015.16;1734185;81;21150;-83
2020/12/08 03:22:37;;;;;;;48.68;28.52;;;;;;;2.05;82.15;96013.36;1734218;82;21099;-82
2020/12/08 03:25:06;;;;;;;55.05;30.70;;;;;;;1.97;82.02;96017.18;1732049;83;21649;-83
2020/12/08 03:27:33;;;;;;;36.85;21.75;;;;;;;1.77;82.06;96020.25;1728871;83;21262;-83
2020/12/08 03:30:00;;;;;;;51.00;26.35;;;;;;;1.71;82.24;96019.11;1728835;82;21518;-83
2020/12/08 03:32:27;;;;;;;47.40;26.10;;;;;;;1.74;82.35;96024.65;1728765;83;21625;-83
2020/12/08 03:34:54;;;;;;;53.52;28.60;;;;;;;1.78;82.47;96024.44;1728746;83;21597;-82
2020/12/08 03:37:21;;;;;;;46.25;28.10;;;;;;;1.81;82.49;96023.69;1728773;83;21508;-83
2020/12/08 03:39:48;;;;;;;52.70;29.12;;;;;;;1.90;82.52;96023.58;1728942;82;21112;-83
2020/12/08 03:42:15;;;;;;;53.50;29.67;;;;;;;1.95;82.43;96017.12;1728768;83;21130;-83
2020/12/08 03:44:42;;;;;;;51.28;28.45;;;;;;;1.95;82.27;96018.42;1728695;83;21107;-83
2020/12/08 03:47:10;;;;;;;51.20;28.95;;;;;;;1.86;82.33;96014.13;1728976;83;21139;-83
2020/12/08 03:49:36;;;;;;;46.45;27.25;;;;;;;1.68;82.38;96019.04;1728682;82;21278;-82
2020/12/08 03:52:04;;;;;;;45.55;26.37;;;;;;;1.66;82.50;96018.48;1728720;83;21104;-83
2020/12/08 03:54:31;;;;;;;45.35;26.75;;;;;;;1.74;82.68;96031.18;1728745;83;21273;-83
2020/12/08 03:56:58;;;;;;;51.75;29.92;;;;;;;1.81;82.62;96028.40;1728634;83;21645;-83
2020/12/08 03:59:25;;;;;;;50.03;29.48;;;;;;;1.85;82.59;96028.73;1728702;82;21131;-83
2020/12/08 04:01:52;;;;;;;48.38;27.17;;;;;;;1.97;82.68;96028.13;1728709;83;21149;-83
2020/12/08 04:04:20;;;;;;;45.80;27.48;;;;;;;2.05;82.62;96021.20;1728706;83;21249;-83
2020/12/08 04:06:48;;;;;;;51.98;31.07;;;;;;;2.11;82.49;96029.39;1728658;83;21645;-82
2020/12/08 04:09:16;;;;;;;52.55;30.52;;;;;;;2.15;82.41;96022.67;1728806;83;21151;-83
2020/12/08 04:11:43;;;;;;;49.58;30.92;;;;;;;2.22;82.35;96029.03;1728856;83;21177;-82
2020/12/08 04:14:10;;;;;;;52.75;29.87;;;;;;;2.30;82.27;96029.95;1728985;83;21138;-82
2020/12/08 04:16:37;;;;;;;48.92;28.52;;;;;;;2.34;82.16;96029.73;1728767;83;21136;-83
2020/12/08 04:19:06;;;;;;;49.45;27.65;;;;;;;2.38;82.02;96029.01;1728863;83;21555;-83
2020/12/08 04:21:34;;;;;;;54.50;28.83;;;;;;;2.38;81.82;96026.39;1728886;82;21184;-83
2020/12/08 04:24:01;;;;;;;46.05;27.27;;;;;;;2.41;81.75;96034.81;1728887;83;21139;-82
2020/12/08 04:26:30;;;;;;;45.12;27.00;;;;;;;2.42;81.62;96033.78;1734115;83;21131;-83
2020/12/08 04:28:59;;;;;;;49.58;27.05;;;;;;;2.44;81.58;96040.88;1735239;82;21151;-83
2020/12/08 04:31:27;;;;;;;46.55;28.17;;;;;;;2.49;81.58;96050.09;1735150;81;21143;-83
2020/12/08 04:33:54;;;;;;;51.83;29.95;;;;;;;2.41;81.46;96044.77;1735083;83;21107;-83
2020/12/08 04:36:24;;;;;;;51.15;29.70;;;;;;;2.33;81.45;96045.95;1735028;82;21150;-83
2020/12/08 04:38:51;;;;;;;55.00;31.33;;;;;;;2.26;81.50;96049.77;1735296;82;21142;-82
2020/12/08 04:41:24;;;;;;;56.18;32.00;;;;;;;2.11;81.52;96054.23;1735060;81;21138;-83
2020/12/08 04:43:53;;;;;;;53.98;29.07;;;;;;;2.00;81.65;96048.07;1706136;84;21126;-83
2020/12/08 04:46:26;;;;;;;48.65;27.80;;;;;;;1.97;81.89;96050.34;1705807;83;21151;-83
2020/12/08 04:48:54;;;;;;;51.28;29.18;;;;;;;1.87;82.17;96054.91;1706001;84;21135;-83
2020/12/08 04:51:21;;;;;;;51.63;28.47;;;;;;;1.73;82.45;96047.89;1705806;83;21146;-82
2020/12/08 04:53:54;;;;;;;57.10;31.12;;;;;;;1.68;82.61;96053.52;1705873;84;21138;-83
2020/12/08 04:56:21;;;;;;;51.48;29.10;;;;;;;1.68;82.75;96056.92;1705863;84;21154;-83
2020/12/08 04:58:48;;;;;;;49.05;28.07;;;;;;;1.76;82.88;96062.30;1705806;84;21158;-83
2020/12/08 05:01:29;;;;;;;48.85;29.48;;;;;;;1.81;82.85;96057.66;1705797;83;21146;-83
2020/12/08 05:04:00;;;;;;;53.92;30.82;;;;;;;1.81;82.81;96057.66;1705847;83;21145;-83
2020/12/08 05:06:30;;;;;;;53.55;30.92;;;;;;;1.87;82.85;96060.66;1698250;84;21559;-83
2020/12/08 05:11:47;;;;;;;52.75;30.32;;;;;;;1.91;82.85;96049.48;1871287;76;23044;-82
2020/12/08 05:14:14;;;;;;;50.43;29.10;;;;;;;1.94;82.88;96054.75;1770321;81;21669;-82
2020/12/08 05:16:40;;;;;;;52.80;28.75;;;;;;;1.95;82.77;96046.66;1770199;81;21475;-82
2020/12/08 05:19:11;;;;;;;50.63;27.48;;;;;;;1.93;82.69;96044.02;1770462;81;21481;-82
2020/12/08 05:21:51;;;;;;;49.08;26.80;;;;;;;1.88;82.67;96041.33;1770281;81;21138;-83
2020/12/08 05:24:32;;;;;;;50.08;28.85;;;;;;;1.86;82.69;96046.00;1770308;80;21119;-82
2020/12/08 05:27:02;;;;;;;49.40;29.10;;;;;;;1.86;82.80;96042.09;1770228;80;21130;-83
2020/12/08 05:29:32;;;;;;;55.90;30.20;;;;;;;1.93;82.89;96039.58;1770337;80;21487;-83
2020/12/08 05:32:29;;;;;;;54.13;30.40;;;;;;;1.88;82.78;96041.33;1770476;81;21147;-83
2020/12/08 05:34:56;;;;;;;51.88;29.02;;;;;;;1.75;82.82;96024.92;1770358;79;21555;-83
2020/12/08 05:37:23;;;;;;;49.38;28.27;;;;;;;1.72;82.81;96038.98;1770409;81;21293;-83
2020/12/08 05:39:50;;;;;;;48.15;27.80;;;;;;;1.57;83.05;96046.56;1770337;81;21168;-83
2020/12/08 05:42:21;;;;;;;43.13;25.30;;;;;;;1.48;83.24;96047.44;1770900;79;21664;-83
2020/12/08 05:44:51;;;;;;;;;;;;;;;1.47;83.46;96063.62;1773001;81;21435;-83
2020/12/08 05:47:21;;;;;;;48.02;27.77;;;;;;;1.45;83.48;96071.42;1770257;80;20130;-83
2020/12/08 05:49:59;;;;;;;39.55;21.30;;;;;;;1.48;83.54;96076.97;1770360;81;21494;-83
2020/12/08 05:52:20;;;;;;;46.77;25.65;;;;;;;1.57;83.68;96084.44;1772121;79;21253;-83
2020/12/08 05:54:46;;;;;;;44.95;26.07;;;;;;;1.66;83.70;96081.70;1770274;81;21131;-83
2020/12/08 05:57:15;;;;;;;42.13;25.65;;;;;;;1.71;83.57;96081.30;1770175;81;21154;-83
2020/12/08 05:59:42;;;;;;;40.85;25.85;;;;;;;1.67;83.44;96088.52;1770220;80;21177;-83
2020/12/08 06:02:09;;;;;;;42.15;27.50;;;;;;;1.60;83.39;96090.50;1770203;81;21131;-83
2020/12/08 06:04:44;;;;;;;41.88;27.15;;;;;;;1.64;83.44;96097.63;1770356;80;21304;-83
2020/12/08 06:07:11;;;;;;;43.78;26.68;;;;;;;1.67;83.43;96096.36;1770160;81;21143;-83
2020/12/08 06:09:37;;;;;;;38.88;24.02;;;;;;;1.72;83.47;96092.55;1770212;80;21107;-83
2020/12/08 06:12:17;;;;;;;40.25;24.95;;;;;;;1.72;83.34;96094.64;1770861;79;21138;-82
2020/12/08 06:14:44;;;;;;;40.00;23.35;;;;;;;1.60;82.97;96092.59;1770233;81;21112;-82
2020/12/08 06:17:11;;;;;;;38.53;23.20;;;;;;;1.51;83.00;96097.90;1770247;81;21259;-82
2020/12/08 06:19:38;;;;;;;41.35;26.05;;;;;;;1.42;83.12;96095.40;1770212;81;21103;-82
2020/12/08 06:22:15;;;;;;;42.65;26.20;;;;;;;1.30;83.12;96095.95;1769922;81;21138;-82
2020/12/08 06:24:55;;;;;;;46.42;25.75;;;;;;;1.29;83.40;96094.36;1769949;81;21114;-83
2020/12/08 06:27:23;;;;;;;;;;;;;;;1.41;83.67;96097.73;1772279;81;21511;-83
2020/12/08 06:29:56;;;;;;;34.45;22.35;;;;;;;1.47;83.66;96103.31;1769789;80;20124;-83
2020/12/08 06:32:29;;;;;;;32.33;19.92;;;;;;;1.39;83.59;96102.38;1769591;81;21147;-83
2020/12/08 06:35:07;;;;;;;36.13;24.05;;;;;;;1.32;83.73;96106.44;1769256;81;21159;-83
2020/12/08 06:37:35;;;;;;;37.98;23.38;;;;;;;1.21;83.75;96109.87;1769446;81;21507;-84
2020/12/08 06:40:12;;;;;;;34.60;21.60;;;;;;;1.17;83.86;96105.63;1769597;81;21164;-83
2020/12/08 06:42:39;;;;;;;34.67;22.77;;;;;;;1.01;84.25;96110.26;1770170;79;21487;-83
2020/12/08 06:45:17;;;;;;;37.15;22.45;;;;;;;0.87;84.40;96114.14;1769677;81;21139;-84
2020/12/08 06:47:46;;;;;;;40.35;24.55;;;;;;;0.89;84.64;96111.58;1769046;81;21135;-83
2020/12/08 06:50:32;;;;;;;36.00;22.07;;;;;;;1.02;84.80;96109.75;1769665;81;21462;-83
2020/12/08 06:53:02;;;;;;;32.00;19.90;;;;;;;1.12;84.81;96110.72;1769723;81;21487;-83
2020/12/08 06:55:33;;;;;;;36.05;23.07;;;;;;;1.22;84.79;96119.80;1769759;81;21138;-83
2020/12/08 06:58:05;;;;;;;35.08;23.07;;;;;;;1.18;84.60;96124.18;1768219;81;21131;-83
2020/12/08 07:00:32;;;;;;;41.28;26.23;;;;;;;1.18;84.44;96116.34;1769645;81;21508;-83
2020/12/08 07:03:02;;;;;;;39.75;24.95;;;;;;;1.24;84.56;96117.74;1769644;81;21122;-83
2020/12/08 07:05:32;;;;;;;39.88;25.88;;;;;;;1.31;84.54;96116.60;1769946;80;21138;-83
2020/12/08 07:08:05;;;;;;;27.73;17.55;;;;;;;1.24;84.30;96117.74;1769660;81;21158;-83
2020/12/08 07:10:41;;;;;;;35.85;24.23;;;;;;;1.19;84.31;96121.84;1770097;80;21142;-83
2020/12/08 07:13:16;;;;;;;32.75;23.12;;;;;;;1.11;84.32;96118.28;1771069;79;21277;-83
2020/12/08 07:15:44;;;;;;;33.53;21.70;;;;;;;1.04;84.47;96126.76;1770440;80;21281;-84
2020/12/08 07:18:14;;;;;;;34.43;22.80;;;;;;;0.99;84.62;96124.56;1770401;81;21301;-83
2020/12/08 07:20:43;;;;;;;34.50;22.47;;;;;;;0.80;85.09;96124.68;1770660;80;21295;-84
2020/12/08 07:23:12;;;;;;;32.88;21.85;;;;;;;0.67;85.24;96127.52;1770443;80;21637;-83
2020/12/08 07:25:40;;;;;;;32.13;22.00;;;;;;;0.61;85.41;96136.77;1770660;81;21292;-83
2020/12/08 07:28:08;;;;;;;32.80;20.97;;;;;;;0.50;85.39;96133.92;1770361;81;21238;-83
2020/12/08 07:30:37;;;;;;;22.00;15.90;;;;;;;0.58;85.53;96141.94;1770738;80;21128;-83
2020/12/08 07:33:14;;;;;;;28.20;18.98;;;;;;;0.67;85.65;96146.29;1770478;81;21309;-84
2020/12/08 07:35:45;;;;;;;27.33;20.03;;;;;;;0.71;85.54;96138.31;1770837;80;21126;-83
2020/12/08 07:38:13;;;;;;;25.10;16.82;;;;;;;0.76;85.44;96141.81;1770316;80;21261;-83
2020/12/08 07:40:42;;;;;;;31.97;21.33;;;;;;;0.79;85.33;96145.27;1770455;80;21661;-83
2020/12/08 07:43:10;;;;;;;28.65;20.77;;;;;;;0.78;85.16;96142.38;1770909;79;21297;-83
2020/12/08 07:45:46;;;;;;;27.40;20.17;;;;;;;0.94;85.28;96140.89;1770642;80;21285;-83
2020/12/08 07:48:19;;;;;;;47.60;23.98;;;;;;;1.07;85.28;96142.47;1770393;81;21111;-84
2020/12/08 07:50:47;;;;;;;47.20;24.57;;;;;;;1.21;85.13;96145.63;1770347;80;21138;-83
2020/12/08 07:53:15;;;;;;;47.88;24.52;;;;;;;1.32;85.02;96142.20;1770338;80;21676;-83
2020/12/08 07:55:46;;;;;;;44.70;22.95;;;;;;;1.35;84.78;96143.04;1770419;80;21629;-84
2020/12/08 07:58:14;;;;;;;43.98;22.93;;;;;;;1.38;84.61;96140.75;1770596;80;21298;-84
2020/12/08 08:00:43;;;;;;;48.13;24.50;;;;;;;1.31;84.41;96140.10;1770431;81;21273;-83
2020/12/08 08:03:10;;;;;;;40.98;23.98;;;;;;;1.24;84.38;96139.94;1770596;80;21100;-83
2020/12/08 08:05:37;;;;;;;36.38;22.13;;;;;;;1.32;84.54;96142.99;1770382;80;21249;-83
2020/12/08 08:08:05;;;;;;;31.45;21.12;;;;;;;1.41;84.59;96146.84;1770397;80;21292;-84
2020/12/08 08:10:32;;;;;;;34.92;20.68;;;;;;;1.51;84.55;96146.73;1770077;80;21168;-83
2020/12/08 08:12:59;;;;;;;29.65;19.62;;;;;;;1.59;84.40;96148.48;1770148;79;21466;-83
2020/12/08 08:15:27;;;;;;;29.77;18.95;;;;;;;1.65;84.27;96146.75;1769553;81;21285;-83
2020/12/08 08:17:54;;;;;;;27.05;19.25;;;;;;;1.70;84.17;96147.66;1769448;81;21335;-83
2020/12/08 08:20:21;;;;;;;28.60;20.37;;;;;;;1.79;84.15;96151.98;1769589;81;21164;-84
2020/12/08 08:22:50;;;;;;;30.02;20.40;;;;;;;1.91;84.17;96150.11;1769565;81;21499;-83
2020/12/08 08:25:17;;;;;;;36.85;24.10;;;;;;;1.97;83.87;96152.29;1769546;81;21143;-84
2020/12/08 08:27:45;;;;;;;40.92;25.75;;;;;;;1.90;83.61;96146.43;1769672;81;21116;-84
2020/12/08 08:30:12;;;;;;;30.85;21.27;;;;;;;1.95;83.44;96145.99;1769673;81;21201;-84
2020/12/08 08:32:39;;;;;;;34.92;23.20;;;;;;;1.91;83.19;96140.96;1769520;81;21138;-83
2020/12/08 08:35:07;;;;;;;40.03;24.10;;;;;;;1.72;82.82;96146.91;1769584;81;21184;-83
2020/12/08 08:37:35;;;;;;;34.65;22.75;;;;;;;1.63;83.05;96143.06;1769547;81;21498;-83
2020/12/08 08:40:03;;;;;;;32.80;21.30;;;;;;;1.68;83.23;96153.60;1769501;81;21529;-83
2020/12/08 08:42:31;;;;;;;30.70;21.50;;;;;;;1.79;83.30;96158.52;1770145;79;21135;-83
2020/12/08 08:44:58;;;;;;;56.48;38.23;;;;;;;1.82;83.23;96150.20;1769563;81;21131;-84
2020/12/08 08:47:26;;;;;;;44.25;30.08;;;;;;;1.98;83.32;96152.59;1769479;81;21644;-84
2020/12/08 08:49:53;;;;;;;32.42;22.20;;;;;;;2.24;83.55;96155.11;1769500;81;21186;-84
2020/12/08 08:52:20;;;;;;;34.00;23.12;;;;;;;2.42;83.44;96150.19;1769614;81;21155;-83
2020/12/08 08:54:48;;;;;;;36.95;25.55;;;;;;;2.29;82.92;96154.70;1769453;81;21111;-84
2020/12/08 08:57:15;;;;;;;34.43;24.52;;;;;;;2.24;82.90;96150.67;1769558;81;21490;-83
2020/12/08 08:59:43;;;;;;;31.73;22.67;;;;;;;2.44;83.37;96148.92;1769522;81;21146;-84
2020/12/08 09:02:11;;;;;;;34.27;22.52;;;;;;;2.86;83.78;96161.06;1769626;80;21479;-83
2020/12/08 09:04:38;;;;;;;32.40;21.85;;;;;;;3.31;84.00;96151.45;1769494;81;21124;-84
2020/12/08 09:07:06;;;;;;;34.35;24.50;;;;;;;3.69;83.84;96154.53;1769713;81;21147;-84
2020/12/08 09:09:34;;;;;;;38.98;25.45;;;;;;;3.67;82.47;96159.23;1769373;81;21510;-84
2020/12/08 09:12:02;;;;;;;35.35;24.47;;;;;;;3.33;81.80;96161.95;1770118;79;21162;-84
2020/12/08 09:14:31;;;;;;;37.05;25.68;;;;;;;3.08;81.77;96163.72;1769651;81;21151;-84
2020/12/08 09:16:58;;;;;;;35.75;25.05;;;;;;;2.86;81.98;96166.30;1769563;81;21139;-84
2020/12/08 09:19:26;;;;;;;39.48;25.50;;;;;;;2.77;82.11;96168.25;1769507;81;21490;-83
2020/12/08 09:21:54;;;;;;;41.10;26.70;;;;;;;2.94;82.72;96171.63;1769620;81;21510;-84
2020/12/08 09:24:22;;;;;;;35.50;23.38;;;;;;;3.18;83.02;96173.03;1769442;81;21139;-84
2020/12/08 09:26:49;;;;;;;36.08;23.85;;;;;;;3.30;82.60;96177.38;1769533;81;21289;-84
2020/12/08 09:29:17;;;;;;;33.78;22.45;;;;;;;3.12;82.06;96173.22;1769790;81;21150;-84
2020/12/08 09:31:44;;;;;;;34.00;23.92;;;;;;;2.96;82.17;96177.45;1769614;81;21163;-84
2020/12/08 09:34:12;;;;;;;36.17;22.42;;;;;;;3.03;82.48;96171.52;1769539;81;21139;-84
2020/12/08 09:36:39;;;;;;;31.82;21.95;;;;;;;3.10;82.45;96170.05;1769614;80;21135;-84
2020/12/08 09:39:06;;;;;;;29.60;19.60;;;;;;;2.97;82.11;96177.20;1769589;81;21166;-84
2020/12/08 09:41:34;;;;;;;29.98;21.20;;;;;;;2.89;82.14;96174.19;1770027;79;21507;-84
2020/12/08 09:44:02;;;;;;;32.03;21.77;;;;;;;2.80;82.34;96168.55;1769452;81;21135;-84
2020/12/08 09:46:29;;;;;;;35.35;22.50;;;;;;;2.72;82.53;96167.66;1769625;80;21143;-84
2020/12/08 09:48:57;;;;;;;32.42;22.42;;;;;;;2.64;82.81;96173.28;1769360;81;21277;-84
2020/12/08 09:51:25;;;;;;;34.00;22.58;;;;;;;2.61;83.00;96161.99;1769608;81;21196;-84
2020/12/08 09:53:52;;;;;;;36.45;23.95;;;;;;;2.57;83.21;96175.28;1769551;81;21131;-84
2020/12/08 09:56:20;;;;;;;32.65;21.30;;;;;;;2.59;83.42;96166.16;1769552;80;21142;-84
2020/12/08 09:58:48;;;;;;;40.63;25.12;;;;;;;2.63;83.51;96169.09;1769801;81;21200;-84
2020/12/08 10:01:16;;;;;;;37.98;25.05;;;;;;;2.53;83.62;96170.23;1769781;81;21139;-84
2020/12/08 10:03:43;;;;;;;37.03;23.87;;;;;;;2.59;83.75;96167.98;1770007;81;21135;-84
2020/12/08 10:06:14;;;;;;;37.85;24.55;;;;;;;2.62;83.72;96168.30;1769657;81;21499;-84
2020/12/08 10:08:42;;;;;;;40.50;26.15;;;;;;;2.58;83.70;96172.94;1769673;81;21150;-84
2020/12/08 10:11:10;;;;;;;32.85;21.70;;;;;;;2.49;83.69;96175.66;1769547;80;21147;-84
2020/12/08 10:13:38;;;;;;;38.08;24.47;;;;;;;2.51;83.69;96175.70;1770272;79;21088;-84
2020/12/08 10:16:05;;;;;;;37.25;24.40;;;;;;;2.38;83.61;96174.19;1769680;81;21139;-84
2020/12/08 10:18:33;;;;;;;35.25;24.10;;;;;;;2.45;83.82;96181.89;1769783;81;21151;-84
2020/12/08 10:21:01;;;;;;;41.15;26.52;;;;;;;2.64;83.99;96178.52;1769542;81;21120;-84
2020/12/08 10:23:29;;;;;;;35.60;23.80;;;;;;;2.79;83.90;96173.52;1769610;81;21096;-84
2020/12/08 10:25:56;;;;;;;39.05;23.42;;;;;;;2.83;83.66;96172.03;1769625;81;21134;-84
2020/12/08 10:28:24;;;;;;;40.12;24.77;;;;;;;2.65;83.60;96168.33;1769665;81;21151;-84
2020/12/08 10:30:51;;;;;;;39.95;24.70;;;;;;;2.52;83.91;96168.13;1769616;81;21487;-84
2020/12/08 10:33:18;;;;;;;41.00;26.37;;;;;;;2.47;84.02;96166.75;1769705;81;21142;-84
2020/12/08 10:35:46;;;;;;;39.53;25.80;;;;;;;2.61;84.31;96163.30;1769650;81;21184;-84
2020/12/08 10:38:14;;;;;;;45.23;26.12;;;;;;;2.68;84.34;96160.81;1769693;81;21127;-84
2020/12/08 10:40:41;;;;;;;44.63;26.27;;;;;;;2.73;84.26;96165.32;1769683;81;21184;-84
2020/12/08 10:43:09;;;;;;;47.00;28.40;;;;;;;2.71;84.16;96168.70;1770388;79;21136;-84
2020/12/08 10:45:36;;;;;;;47.10;27.30;;;;;;;2.70;84.23;96168.42;1769632;81;21138;-84
2020/12/08 10:48:03;;;;;;;49.55;29.23;;;;;;;2.87;84.39;96168.41;1769605;81;21151;-84
2020/12/08 10:50:31;;;;;;;50.23;29.25;;;;;;;2.95;84.30;96164.84;1769497;81;21127;-84
2020/12/08 10:52:58;;;;;;;57.62;31.57;;;;;;;3.03;84.23;96180.68;1769636;81;21460;-84
2020/12/08 10:55:25;;;;;;;63.63;31.68;;;;;;;3.08;84.10;96179.43;1769556;81;21130;-84
2020/12/08 10:57:53;;;;;;;68.17;33.73;;;;;;;3.17;84.12;96170.66;1769597;81;21131;-84
2020/12/08 11:00:20;;;;;;;51.88;30.40;;;;;;;3.09;83.93;96166.61;1769647;81;21120;-84
2020/12/08 11:02:47;;;;;;;43.10;26.95;;;;;;;3.03;84.05;96164.97;1769759;81;21139;-84
2020/12/08 11:05:15;;;;;;;43.90;25.68;;;;;;;2.82;84.14;96178.30;1769677;81;21158;-84
2020/12/08 11:07:42;;;;;;;47.27;28.52;;;;;;;2.65;84.30;96177.48;1769596;81;21128;-84
2020/12/08 11:10:09;;;;;;;46.45;28.45;;;;;;;2.58;84.47;96177.66;1769557;81;21478;-84
2020/12/08 11:12:37;;;;;;;32.67;21.37;;;;;;;2.53;84.61;96174.16;1770478;79;21159;-84
2020/12/08 11:15:05;;;;;;;42.50;26.33;;;;;;;2.52;84.94;96179.11;1770537;80;21506;-84
2020/12/08 11:17:35;;;;;;;39.55;25.02;;;;;;;2.42;84.98;96184.98;1770710;80;21519;-84
2020/12/08 11:20:04;;;;;;;42.00;25.65;;;;;;;2.33;85.08;96177.23;1770370;80;21689;-84
2020/12/08 11:22:33;;;;;;;43.87;27.25;;;;;;;2.32;85.16;96179.06;1770413;79;21131;-84
2020/12/08 11:25:00;;;;;;;40.58;26.00;;;;;;;2.49;85.37;96184.83;1770355;81;21151;-84
2020/12/08 11:27:27;;;;;;;81.75;47.60;;;;;;;2.47;85.08;96179.83;1770573;80;21538;-84
2020/12/08 11:29:55;;;;;;;58.50;39.92;;;;;;;2.27;85.15;96185.53;1770536;81;21487;-84
2020/12/08 11:32:22;;;;;;;40.20;26.35;;;;;;;2.01;85.70;96182.19;1770424;81;21285;-84
2020/12/08 11:34:50;;;;;;;40.25;25.25;;;;;;;1.74;86.13;96180.13;1770448;80;21614;-83